Time;durP1;ratioP1;P1;durP2;ratioP2;P2;SDS_P1;SDS_P2;PMS_P1;PMS_P2;Temp;Humidity;BMP_temperature;BMP_pressure;BME280_temperature;BME280_humidity;BME280_pressure;Samples;Min_cycle;Max_cycle;Signal;HPM_P1;HPM_P2
2021/07/16 00:01:09;;;;;;;;;;;;;;;26.41;43.66;99233.56;5093174;28;19943;-50
2021/07/16 00:03:34;;;;;;;;;;;;;;;26.71;43.10;99229.03;5093171;28;19954;-50
2021/07/16 00:05:59;;;;;;;;;;;;;;;26.43;43.63;99234.81;5093004;28;19916;-53
2021/07/16 00:08:25;;;;;;;;;;;;;;;25.92;44.35;99237.19;5092780;28;19962;-51
2021/07/16 00:10:50;;;;;;;;;;;;;;;26.20;43.87;99238.81;5093366;28;19912;-51
2021/07/16 00:13:15;;;;;;;;;;;;;;;26.27;43.44;99245.41;5091820;28;20021;-52
2021/07/16 00:15:41;;;;;;;;;;;;;;;26.97;41.98;99239.13;5093342;28;19930;-51
2021/07/16 00:18:06;;;;;;;;;;;;;;;26.27;43.30;99233.69;5099367;28;20003;-51
2021/07/16 00:20:31;;;;;;;;;;;;;;;25.85;44.39;99222.38;5113528;28;20287;-52
2021/07/16 00:22:57;;;;;;;;;;;;;;;25.77;44.50;99213.06;5113064;28;19969;-52
2021/07/16 00:25:22;;;;;;;;;;;;;;;25.77;44.69;99209.56;5113362;28;19912;-53
2021/07/16 00:27:47;;;;;;;;;;;;;;;25.73;44.94;99210.19;5113421;28;19911;-53
2021/07/16 00:30:13;;;;;;;;;;;;;;;26.41;43.27;99211.72;5113333;28;19912;-52
2021/07/16 00:32:39;;;;;;;;;;;;;;;26.12;44.00;99224.88;5113040;28;19915;-52
2021/07/16 00:35:04;;;;;;;;;;;;;;;25.91;44.36;99226.56;5113286;28;20390;-53
2021/07/16 00:37:29;;;;;;;;;;;;;;;25.94;44.33;99226.75;5113127;28;19926;-52
2021/07/16 00:39:55;;;;;;;;;;;;;;;25.76;44.92;99222.38;5112257;28;20002;-50
2021/07/16 00:42:20;;;;;;;;;;;;;;;26.04;44.22;99222.91;5112912;28;20284;-48
2021/07/16 00:44:45;;;;;;;;;;;;;;;26.29;43.85;99218.63;5113198;28;19912;-49
2021/07/16 00:47:10;;;;;;;;;;;;;;;25.89;44.46;99220.63;5113090;28;19916;-49
2021/07/16 00:49:36;;;;;;;;;;;;;;;25.84;44.98;99227.03;5113418;28;20406;-51
2021/07/16 00:52:01;;;;;;;;;;;;;;;25.68;45.52;99234.03;5113073;28;19915;-52
2021/07/16 00:54:27;;;;;;;;;;;;;;;25.71;45.58;99230.69;5112661;28;20444;-51
2021/07/16 00:56:52;;;;;;;;;;;;;;;26.03;45.05;99229.50;5111425;28;19916;-52
2021/07/16 00:59:17;;;;;;;;;;;;;;;26.26;44.47;99224.72;5112771;28;19918;-51
2021/07/16 01:01:43;;;;;;;;;;;;;;;25.79;45.78;99229.13;5112827;28;19965;-51
2021/07/16 01:04:08;;;;;;;;;;;;;;;25.51;46.23;99221.16;5112515;28;19955;-51
2021/07/16 01:06:34;;;;;;;;;;;;;;;25.44;46.34;99221.66;5111977;28;19912;-48
2021/07/16 01:08:59;;;;;;;;;;;;;;;25.45;46.64;99215.06;5092328;28;19919;-51
2021/07/16 01:11:24;;;;;;;;;;;;;;;25.98;45.13;99218.75;5092279;28;19918;-50
2021/07/16 01:13:49;;;;;;;;;;;;;;;25.54;46.23;99212.38;5092246;28;19939;-50
2021/07/16 01:16:15;;;;;;;;;;;;;;;25.44;46.59;99221.66;5090784;28;20125;-51
2021/07/16 01:18:40;;;;;;;;;;;;;;;25.39;46.71;99220.97;5102817;28;19980;-52
2021/07/16 01:21:05;;;;;;;;;;;;;;;25.67;46.08;99214.19;5112358;28;19916;-52
2021/07/16 01:23:31;;;;;;;;;;;;;;;25.98;45.49;99226.13;5112139;28;19912;-52
2021/07/16 01:25:56;;;;;;;;;;;;;;;26.73;43.75;99221.31;5110826;28;20036;-51
2021/07/16 01:28:21;;;;;;;;;;;;;;;25.85;46.12;99212.28;5112056;28;19912;-50
2021/07/16 01:30:47;;;;;;;;;;;;;;;25.21;47.72;99204.56;5112039;28;19912;-51
2021/07/16 01:33:13;;;;;;;;;;;;;;;25.16;47.91;99201.97;5111336;28;19912;-50
2021/07/16 01:35:38;;;;;;;;;;;;;;;25.41;47.57;99205.94;5111761;28;19912;-51
2021/07/16 01:38:04;;;;;;;;;;;;;;;25.69;47.04;99205.69;5111974;28;20377;-51
2021/07/16 01:40:35;;;;;;;;;;;;;;;26.41;44.90;99209.00;5111542;28;20438;-53
2021/07/16 01:43:00;;;;;;;;;;;;;;;26.04;45.62;99203.03;5111879;28;20363;-50
2021/07/16 01:45:30;;;;;;;;;;;;;;;25.80;46.13;99208.91;5111820;28;19968;-49
2021/07/16 01:47:59;;;;;;;;;;;;;;;25.53;46.77;99210.75;5111580;28;19968;-49
2021/07/16 01:50:25;;;;;;;;;;;;;;;25.67;47.06;99211.47;5111139;28;19915;-55
2021/07/16 01:52:50;;;;;;;;;;;;;;;25.90;45.86;99217.59;5111342;28;20019;-50
2021/07/16 01:55:16;;;;;;;;;;;;;;;26.02;46.17;99216.19;5111882;28;19911;-50
2021/07/16 01:57:46;;;;;;;;;;;;;;;26.07;45.46;99214.13;5111654;28;20012;-51
2021/07/16 02:00:12;;;;;;;;;;;;;;;25.62;45.51;99210.81;5111429;28;19916;-50
2021/07/16 02:02:44;;;;;;;;;;;;;;;25.16;46.79;99208.19;5111787;28;19912;-49
2021/07/16 02:05:10;;;;;;;;;;;;;;;24.92;47.33;99202.31;5111757;28;19922;-52
2021/07/16 02:07:35;;;;;;;;;;;;;;;25.36;46.65;99206.09;5102031;28;19912;-52
2021/07/16 02:10:00;;;;;;;;;;;;;;;25.40;46.44;99214.41;5091210;28;19919;-51
2021/07/16 02:12:25;;;;;;;;;;;;;;;25.49;46.16;99213.34;5091309;28;19959;-48
2021/07/16 02:14:51;;;;;;;;;;;;;;;25.56;46.01;99212.88;5091149;28;19916;-50
2021/07/16 02:17:16;;;;;;;;;;;;;;;25.66;45.71;99209.03;5089789;28;19971;-50
2021/07/16 02:19:41;;;;;;;;;;;;;;;25.59;45.95;99204.06;5111026;28;19923;-51
2021/07/16 02:22:10;;;;;;;;;;;;;;;25.66;45.80;99198.16;5111374;28;20043;-51
2021/07/16 02:24:35;;;;;;;;;;;;;;;25.52;45.62;99211.91;5111314;28;19940;-49
2021/07/16 02:27:01;;;;;;;;;;;;;;;25.36;45.92;99206.88;5111414;28;19954;-49
2021/07/16 02:29:27;;;;;;;;;;;;;;;25.14;46.41;99198.75;5111354;28;20314;-51
2021/07/16 02:31:52;;;;;;;;;;;;;;;25.25;46.30;99194.66;5111388;28;19919;-49
2021/07/16 02:34:17;;;;;;;;;;;;;;;25.31;45.96;99200.78;5111223;28;19911;-48
2021/07/16 02:36:43;;;;;;;;;;;;;;;25.27;45.89;99199.81;5111065;28;19911;-49
2021/07/16 02:39:08;;;;;;;;;;;;;;;24.93;47.17;99203.94;5111366;28;19912;-51
2021/07/16 02:41:33;;;;;;;;;;;;;;;25.20;46.36;99197.50;5111313;28;19927;-51
2021/07/16 02:43:59;;;;;;;;;;;;;;;25.37;45.83;99196.78;5111075;28;19984;-48
2021/07/16 02:46:24;;;;;;;;;;;;;;;25.73;45.42;99201.22;5108936;28;19912;-50
2021/07/16 02:48:49;;;;;;;;;;;;;;;25.70;45.16;99204.56;5090953;28;20336;-52
2021/07/16 02:51:14;;;;;;;;;;;;;;;25.77;45.14;99199.47;5090673;28;19908;-49
2021/07/16 02:53:40;;;;;;;;;;;;;;;25.79;44.80;99205.38;5090788;28;20314;-50
2021/07/16 02:56:05;;;;;;;;;;;;;;;25.86;44.99;99213.91;5090659;28;20010;-51
2021/07/16 02:58:30;;;;;;;;;;;;;;;25.91;45.11;99213.78;5090680;28;19912;-52
2021/07/16 03:00:55;;;;;;;;;;;;;;;25.90;44.80;99212.13;5090571;28;19916;-50
2021/07/16 03:03:22;;;;;;;;;;;;;;;25.72;44.95;99208.59;5093108;28;20003;-51
2021/07/16 03:05:48;;;;;;;;;;;;;;;25.32;45.55;99208.63;5094632;28;19912;-52
2021/07/16 03:08:13;;;;;;;;;;;;;;;25.29;46.12;99208.44;5094312;28;20296;-50
2021/07/16 03:10:42;;;;;;;;;;;;;;;25.41;45.57;99210.56;5093875;28;19981;-52
2021/07/16 03:13:10;;;;;;;;;;;;;;;25.52;45.53;99206.44;5092879;28;19919;-52
2021/07/16 03:15:35;;;;;;;;;;;;;;;25.66;45.11;99214.50;5093653;28;19951;-51
2021/07/16 03:18:01;;;;;;;;;;;;;;;25.54;45.69;99212.38;5099590;28;19947;-49
2021/07/16 03:20:27;;;;;;;;;;;;;;;25.65;45.35;99223.81;5114410;28;19993;-51
2021/07/16 03:22:52;;;;;;;;;;;;;;;25.58;45.66;99218.81;5114742;28;20026;-51
2021/07/16 03:25:18;;;;;;;;;;;;;;;25.75;45.18;99220.78;5114695;28;20398;-50
2021/07/16 03:27:43;;;;;;;;;;;;;;;25.71;44.95;99225.25;5114324;28;19911;-50
2021/07/16 03:30:09;;;;;;;;;;;;;;;25.67;45.10;99227.81;5114419;28;19911;-49
2021/07/16 03:32:35;;;;;;;;;;;;;;;25.74;45.22;99227.31;5113105;28;20068;-52
2021/07/16 03:35:00;;;;;;;;;;;;;;;25.77;45.37;99225.91;5082193;28;20011;-48
2021/07/16 03:37:25;;;;;;;;;;;;;;;25.63;45.63;99226.03;5093186;28;20296;-49
2021/07/16 03:39:51;;;;;;;;;;;;;;;25.77;45.47;99232.16;5077705;28;19916;-51
2021/07/16 03:42:19;;;;;;;;;;;;;;;25.94;44.95;99242.31;5074645;28;19920;-51
2021/07/16 03:44:45;;;;;;;;;;;;;;;25.99;45.19;99244.91;5072228;28;19966;-52
2021/07/16 03:47:13;;;;;;;;;;;;;;;26.08;44.77;99243.00;5073704;28;19912;-53
2021/07/16 03:49:39;;;;;;;;;;;;;;;26.20;44.66;99249.72;5073473;28;19920;-51
2021/07/16 03:52:04;;;;;;;;;;;;;;;26.42;44.15;99255.03;5073601;28;19912;-53
2021/07/16 03:54:30;;;;;;;;;;;;;;;26.57;43.84;99256.47;5073238;28;20271;-50
2021/07/16 03:56:55;;;;;;;;;;;;;;;26.83;43.50;99252.97;5073259;28;19916;-50
2021/07/16 03:59:20;;;;;;;;;;;;;;;26.81;43.01;99249.75;5072992;28;20302;-49
2021/07/16 04:01:47;;;;;;;;;;;;;;;26.80;43.29;99253.59;5073385;28;19916;-51
2021/07/16 04:04:12;;;;;;;;;;;;;;;26.95;43.54;99255.03;5073222;28;19912;-38
2021/07/16 04:06:38;;;;;;;;;;;;;;;27.45;42.22;99254.41;5076398;28;19978;-50
2021/07/16 04:11:47;;;;;;;;;;;;;;;26.90;43.93;99243.16;5091217;28;19974;-52
2021/07/16 04:14:12;;;;;;;;;;;;;;;26.73;43.88;99248.63;5091593;28;19952;-51
2021/07/16 04:16:37;;;;;;;;;;;;;;;26.77;44.35;99240.59;5092488;28;19912;-39
2021/07/16 04:19:03;;;;;;;;;;;;;;;26.99;44.14;99237.66;5093765;28;19924;-52
2021/07/16 04:21:28;;;;;;;;;;;;;;;27.21;43.45;99231.16;5092483;28;19924;-39
2021/07/16 04:23:54;;;;;;;;;;;;;;;27.19;43.57;99233.44;5091182;28;20050;-38
2021/07/16 04:26:19;;;;;;;;;;;;;;;27.30;43.09;99233.88;5092702;28;19935;-38
2021/07/16 04:28:44;;;;;;;;;;;;;;;27.41;43.59;99239.78;5092457;28;19961;-38
2021/07/16 04:31:09;;;;;;;;;;;;;;;27.96;42.62;99241.63;5092440;28;19958;-38
2021/07/16 04:33:35;;;;;;;;;;;;;;;28.62;40.77;99237.44;5090868;28;19939;-38
2021/07/16 04:36:00;;;;;;;;;;;;;;;29.03;40.09;99250.22;5092224;28;20395;-37
2021/07/16 04:38:25;;;;;;;;;;;;;;;29.33;39.71;99252.81;5092398;28;20420;-38
2021/07/16 04:40:51;;;;;;;;;;;;;;;29.53;38.97;99244.81;5090927;28;20364;-49
2021/07/16 04:43:16;;;;;;;;;;;;;;;29.68;38.32;99248.81;5092067;28;20324;-51
2021/07/16 04:45:41;;;;;;;;;;;;;;;30.09;37.28;99258.75;5091841;28;20338;-51
2021/07/16 04:48:07;;;;;;;;;;;;;;;30.23;37.48;99255.63;5092297;28;20441;-52
2021/07/16 04:50:32;;;;;;;;;;;;;;;30.33;37.25;99257.94;5091973;28;19928;-51
2021/07/16 04:52:58;;;;;;;;;;;;;;;30.95;36.05;99257.69;5091669;28;20006;-51
2021/07/16 04:55:23;;;;;;;;;;;;;;;29.88;37.57;99253.41;5092057;28;20003;-52
2021/07/16 04:57:49;;;;;;;;;;;;;;;29.83;37.76;99248.16;5091658;28;19985;-51
2021/07/16 05:00:14;;;;;;;;;;;;;;;29.60;37.97;99253.28;5091318;28;19916;-50
2021/07/16 05:02:40;;;;;;;;;;;;;;;30.03;37.23;99257.41;5090040;28;19922;-38
2021/07/16 05:05:05;;;;;;;;;;;;;;;29.97;37.55;99254.09;5082189;28;19920;-37
2021/07/16 05:07:31;;;;;;;;;;;;;;;30.47;37.07;99259.47;5071029;28;19916;-37
2021/07/16 05:09:56;;;;;;;;;;;;;;;30.59;36.82;99260.22;5071183;28;20363;-38
2021/07/16 05:12:21;;;;;;;;;;;;;;;30.46;35.64;99258.66;5070970;28;19919;-38
2021/07/16 05:14:47;;;;;;;;;;;;;;;30.26;36.17;99245.91;5070905;28;19912;-38
2021/07/16 05:17:12;;;;;;;;;;;;;;;30.47;36.12;99251.25;5070570;28;20028;-39
2021/07/16 05:19:37;;;;;;;;;;;;;;;31.15;35.13;99259.41;5109714;28;20376;-39
2021/07/16 05:22:02;;;;;;;;;;;;;;;31.03;34.69;99259.47;5094841;28;19921;-38
2021/07/16 05:24:28;;;;;;;;;;;;;;;30.57;35.86;99256.22;5090671;28;20535;-38
2021/07/16 05:26:54;;;;;;;;;;;;;;;30.46;36.43;99258.66;5090816;28;19912;-38
2021/07/16 05:29:19;;;;;;;;;;;;;;;30.56;35.91;99254.66;5090881;28;20387;-38
2021/07/16 05:31:44;;;;;;;;;;;;;;;30.90;35.54;99256.00;5090731;28;19912;-39
2021/07/16 05:34:10;;;;;;;;;;;;;;;31.80;33.68;99233.50;5089572;28;19923;-39
2021/07/16 05:36:35;;;;;;;;;;;;;;;31.41;34.49;99247.06;5091454;28;19912;-39
2021/07/16 05:39:04;;;;;;;;;;;;;;;31.23;34.92;99257.63;5089402;28;20403;-39
2021/07/16 05:41:29;;;;;;;;;;;;;;;31.32;34.15;99252.75;5090729;28;20011;-50
2021/07/16 05:43:55;;;;;;;;;;;;;;;31.51;33.83;99257.56;5090557;28;19917;-51
2021/07/16 05:46:20;;;;;;;;;;;;;;;32.20;32.45;99248.94;5090560;28;20049;-51
2021/07/16 05:48:46;;;;;;;;;;;;;;;32.12;32.46;99247.16;5084256;28;20458;-50
2021/07/16 05:51:12;;;;;;;;;;;;;;;31.71;33.62;99241.13;5083546;28;19970;-50
2021/07/16 05:53:37;;;;;;;;;;;;;;;31.23;34.80;99249.38;5078154;28;19986;-51
2021/07/16 05:56:03;;;;;;;;;;;;;;;31.41;34.57;99243.53;5070130;28;20007;-52
2021/07/16 05:58:28;;;;;;;;;;;;;;;32.00;33.21;99247.28;5070142;28;19917;-50
2021/07/16 06:00:55;;;;;;;;;;;;;;;32.19;32.81;99247.31;5069382;28;19939;-52
2021/07/16 06:03:20;;;;;;;;;;;;;;;31.94;33.47;99249.50;5068927;28;19959;-51
2021/07/16 06:05:45;;;;;;;;;;;;;;;32.00;33.48;99241.78;5069643;28;20009;-51
2021/07/16 06:08:10;;;;;;;;;;;;;;;32.07;33.14;99244.72;5069613;28;19951;-50
2021/07/16 06:10:36;;;;;;;;;;;;;;;31.82;33.08;99239.44;5069027;28;20065;-50
2021/07/16 06:13:01;;;;;;;;;;;;;;;33.05;31.39;99245.47;5069314;28;19935;-50
2021/07/16 06:15:26;;;;;;;;;;;;;;;32.75;31.82;99248.88;5069283;28;19912;-51
2021/07/16 06:17:52;;;;;;;;;;;;;;;32.29;32.55;99248.72;5078399;28;19966;-52
2021/07/16 06:20:17;;;;;;;;;;;;;;;32.17;33.10;99240.59;5108234;28;19915;-52
2021/07/16 06:22:43;;;;;;;;;;;;;;;31.91;33.76;99239.22;5089315;28;19916;-51
2021/07/16 06:25:08;;;;;;;;;;;;;;;32.77;31.02;99243.81;5089683;28;19942;-52
2021/07/16 06:27:34;;;;;;;;;;;;;;;32.73;32.04;99253.97;5089265;28;20019;-50
2021/07/16 06:29:59;;;;;;;;;;;;;;;32.35;30.91;99252.78;5089011;28;20256;-52
2021/07/16 06:32:24;;;;;;;;;;;;;;;32.15;32.01;99240.97;5089200;28;19919;-51
2021/07/16 06:34:49;;;;;;;;;;;;;;;32.25;30.97;99247.84;5089260;28;20021;-53
2021/07/16 06:37:15;;;;;;;;;;;;;;;32.88;31.41;99239.28;5089653;28;19927;-50
2021/07/16 06:39:40;;;;;;;;;;;;;;;33.26;29.65;99239.56;5092854;28;19965;-51
2021/07/16 06:42:06;;;;;;;;;;;;;;;33.31;30.10;99237.28;5092677;28;19920;-52
2021/07/16 06:44:31;;;;;;;;;;;;;;;33.73;29.42;99234.81;5092782;28;19949;-53
2021/07/16 06:46:57;;;;;;;;;;;;;;;33.80;28.66;99232.16;5092872;28;19912;-52
2021/07/16 06:49:26;;;;;;;;;;;;;;;33.74;28.08;99234.44;5092542;28;20437;-53
2021/07/16 06:51:52;;;;;;;;;;;;;;;34.87;26.73;99231.94;5092519;28;19916;-52
2021/07/16 06:54:17;;;;;;;;;;;;;;;34.31;27.04;99233.63;5092845;28;19934;-52
2021/07/16 06:56:42;;;;;;;;;;;;;;;33.44;27.64;99226.06;5092405;28;20406;-52
2021/07/16 06:59:09;;;;;;;;;;;;;;;33.68;28.61;99233.16;5092546;28;19969;-52
2021/07/16 07:01:35;;;;;;;;;;;;;;;34.05;27.51;99221.47;5092486;28;19927;-52
2021/07/16 07:04:00;;;;;;;;;;;;;;;34.72;26.61;99233.75;5092100;28;19916;-52
2021/07/16 07:06:26;;;;;;;;;;;;;;;33.60;28.08;99220.41;5092042;28;19912;-52
2021/07/16 07:08:51;;;;;;;;;;;;;;;34.20;27.43;99220.50;5091703;28;20244;-51
2021/07/16 07:11:17;;;;;;;;;;;;;;;33.04;28.90;99222.63;5092785;28;20402;-52
2021/07/16 07:13:42;;;;;;;;;;;;;;;33.15;28.87;99219.28;5092209;28;19919;-51
2021/07/16 07:16:07;;;;;;;;;;;;;;;33.60;28.26;99221.19;5092403;28;19919;-50
2021/07/16 07:18:32;;;;;;;;;;;;;;;33.18;29.39;99205.56;5102601;28;19924;-52
2021/07/16 07:20:58;;;;;;;;;;;;;;;33.55;28.49;99207.75;5112305;28;20356;-52
2021/07/16 07:23:23;;;;;;;;;;;;;;;32.78;29.80;99204.06;5112533;28;19918;-51
2021/07/16 07:25:48;;;;;;;;;;;;;;;33.36;29.66;99208.63;5112301;28;20027;-50
2021/07/16 07:28:14;;;;;;;;;;;;;;;33.83;28.34;99193.59;5112428;28;19912;-52
2021/07/16 07:30:39;;;;;;;;;;;;;;;34.73;27.53;99211.28;5112701;28;20332;-52
2021/07/16 07:33:05;;;;;;;;;;;;;;;34.06;28.20;99200.97;5112456;28;19912;-53
2021/07/16 07:35:32;;;;;;;;;;;;;;;34.82;27.75;99199.88;5112570;28;19912;-52
2021/07/16 07:37:58;;;;;;;;;;;;;;;35.62;25.81;99199.34;5112538;28;20007;-53
2021/07/16 07:40:23;;;;;;;;;;;;;;;35.27;27.04;99192.41;5112828;28;20079;-55
2021/07/16 07:42:48;;;;;;;;;;;;;;;35.51;27.03;99204.03;5095266;28;19928;-52
2021/07/16 07:45:13;;;;;;;;;;;;;;;35.17;27.02;99195.88;5099828;28;19922;-52
2021/07/16 07:47:39;;;;;;;;;;;;;;;35.10;26.62;99193.03;5101047;28;19919;-54
2021/07/16 07:50:05;;;;;;;;;;;;;;;35.73;26.49;99193.94;5099178;28;19920;-51
2021/07/16 07:52:30;;;;;;;;;;;;;;;34.98;27.30;99192.16;5095978;28;19951;-53
2021/07/16 07:54:55;;;;;;;;;;;;;;;35.40;26.29;99192.91;5093808;28;20429;-53
2021/07/16 07:57:21;;;;;;;;;;;;;;;34.89;27.47;99197.19;5093652;28;19927;-52
2021/07/16 07:59:46;;;;;;;;;;;;;;;34.70;27.89;99200.97;5091957;28;19923;-52
2021/07/16 08:02:11;;;;;;;;;;;;;;;34.58;27.36;99204.75;5091816;28;20062;-53
2021/07/16 08:04:38;;;;;;;;;;;;;;;34.54;28.27;99195.66;5091984;28;19939;-51
2021/07/16 08:07:03;;;;;;;;;;;;;;;34.95;27.41;99192.13;5091114;28;20446;-53
2021/07/16 08:09:29;;;;;;;;;;;;;;;35.72;26.90;99190.38;5091516;28;20057;-53
2021/07/16 08:11:54;;;;;;;;;;;;;;;35.76;26.50;99182.09;5091591;28;19927;-53
2021/07/16 08:14:19;;;;;;;;;;;;;;;35.55;26.43;99185.50;5091467;28;19919;-52
2021/07/16 08:16:46;;;;;;;;;;;;;;;34.91;27.55;99186.56;5091293;28;20372;-52
2021/07/16 08:19:12;;;;;;;;;;;;;;;34.98;26.94;99183.88;5106764;28;19935;-51
2021/07/16 08:21:37;;;;;;;;;;;;;;;36.09;26.30;99177.50;5111295;28;19923;-51
2021/07/16 08:24:03;;;;;;;;;;;;;;;36.65;25.13;99181.66;5111635;28;20289;-53
2021/07/16 08:26:28;;;;;;;;;;;;;;;35.53;26.87;99185.88;5111690;28;19911;-52
2021/07/16 08:28:53;;;;;;;;;;;;;;;35.44;26.86;99183.44;5111395;28;19918;-50
2021/07/16 08:31:19;;;;;;;;;;;;;;;35.66;26.03;99182.78;5111186;28;19939;-52
2021/07/16 08:33:44;;;;;;;;;;;;;;;35.53;26.05;99179.53;5111479;28;19941;-54
2021/07/16 08:36:09;;;;;;;;;;;;;;;35.35;26.93;99166.38;5093356;28;20164;-52
2021/07/16 08:38:35;;;;;;;;;;;;;;;35.31;27.30;99165.56;5105624;28;20286;-52
2021/07/16 08:41:00;;;;;;;;;;;;;;;35.20;27.08;99164.69;5094083;28;19924;-50
2021/07/16 08:43:27;;;;;;;;;;;;;;;34.87;27.02;99169.16;5105726;28;19919;-52
2021/07/16 08:45:52;;;;;;;;;;;;;;;34.62;27.62;99171.66;5098338;28;19912;-52
2021/07/16 08:48:18;;;;;;;;;;;;;;;35.17;27.15;99165.47;5098343;28;19918;-52
2021/07/16 08:50:43;;;;;;;;;;;;;;;35.31;26.82;99156.50;5106620;28;19912;-53
2021/07/16 08:53:10;;;;;;;;;;;;;;;35.12;26.94;99171.34;5093416;28;20027;-52
2021/07/16 08:55:36;;;;;;;;;;;;;;;34.90;27.67;99164.81;5103948;28;19919;-51
2021/07/16 08:58:07;;;;;;;;;;;;;;;34.82;27.26;99161.19;5100823;28;19916;-52
2021/07/16 09:00:33;;;;;;;;;;;;;;;35.23;27.08;99156.44;5094658;28;20323;-52
2021/07/16 09:02:59;;;;;;;;;;;;;;;35.76;26.62;99154.44;5106609;28;19912;-52
2021/07/16 09:05:40;;;;;;;;;;;;;;;35.77;26.20;99150.47;5096082;28;19922;-52
2021/07/16 09:08:16;;;;;;;;;;;;;;;35.30;27.01;99147.41;5099933;28;19958;-52
2021/07/16 09:10:44;;;;;;;;;;;;;;;34.72;27.34;99143.34;5106739;28;19927;-53
2021/07/16 09:13:10;;;;;;;;;;;;;;;34.28;28.06;99117.25;5094133;28;20317;-52
2021/07/16 09:15:35;;;;;;;;;;;;;;;34.54;27.70;99132.13;5104326;28;20395;-52
2021/07/16 09:18:30;;;;;;;;;;;;;;;35.33;26.50;99129.25;5094524;28;20462;-52
2021/07/16 09:21:01;;;;;;;;;;;;;;;35.46;26.49;99136.03;5087100;28;20072;-52
2021/07/16 09:23:29;;;;;;;;;;;;;;;34.94;27.59;99133.28;5096533;28;20394;-52
2021/07/16 09:26:06;;;;;;;;;;;;;;;35.11;27.48;99128.28;5098445;28;20229;-52
2021/07/16 09:28:31;;;;;;;;;;;;;;;35.01;27.04;99130.59;5095432;28;20054;-51
2021/07/16 09:31:12;;;;;;;;;;;;;;;35.55;26.05;99119.13;5104904;28;20294;-52
2021/07/16 09:33:41;;;;;;;;;;;;;;;34.80;27.64;99119.34;5096192;28;19912;-53
2021/07/16 09:36:06;;;;;;;;;;;;;;;35.16;27.57;99131.47;5099809;28;19919;-52
2021/07/16 09:38:32;;;;;;;;;;;;;;;35.02;27.15;99115.59;5104912;28;19912;-52
2021/07/16 09:41:01;;;;;;;;;;;;;;;35.25;27.33;99117.34;5075628;28;19916;-53
2021/07/16 09:43:27;;;;;;;;;;;;;;;35.74;26.30;99112.53;5104211;28;19919;-51
2021/07/16 09:45:59;;;;;;;;;;;;;;;36.16;26.51;99109.09;5099807;28;19916;-51
2021/07/16 09:48:25;;;;;;;;;;;;;;;35.23;26.81;99116.94;5097492;28;19912;-52
2021/07/16 09:51:13;;;;;;;;;;;;;;;35.68;26.46;99102.97;5107854;28;20362;-54
2021/07/16 09:53:45;;;;;;;;;;;;;;;35.29;26.56;99090.50;5087124;28;20013;-52
2021/07/16 09:56:17;;;;;;;;;;;;;;;35.52;26.60;99092.22;5090633;28;19919;-53
2021/07/16 09:58:42;;;;;;;;;;;;;;;35.70;27.35;99079.28;5096433;28;19919;-53
2021/07/16 10:01:08;;;;;;;;;;;;;;;35.62;27.23;99086.75;5093049;28;19923;-52
2021/07/16 10:03:33;;;;;;;;;;;;;;;35.40;26.70;99072.00;5103918;28;19911;-53
2021/07/16 10:05:59;;;;;;;;;;;;;;;35.81;26.91;99071.84;5098803;28;19965;-51
2021/07/16 10:08:24;;;;;;;;;;;;;;;36.79;25.19;99070.81;5096821;28;19912;-52
2021/07/16 10:10:50;;;;;;;;;;;;;;;36.13;26.03;99073.88;5106960;28;20023;-52
2021/07/16 10:13:15;;;;;;;;;;;;;;;35.78;26.24;99066.28;5096489;28;19973;-51
2021/07/16 10:15:44;;;;;;;;;;;;;;;35.81;26.17;99065.47;5107487;28;20003;-51
2021/07/16 10:18:09;;;;;;;;;;;;;;;36.28;25.89;99066.41;5098634;28;19924;-52
2021/07/16 10:20:35;;;;;;;;;;;;;;;36.30;26.04;99066.03;5109438;28;19922;-53
2021/07/16 10:23:00;;;;;;;;;;;;;;;36.46;25.58;99060.91;5097870;28;19912;-52
2021/07/16 10:25:26;;;;;;;;;;;;;;;36.23;25.83;99066.00;5114920;28;19912;-51
2021/07/16 10:27:51;;;;;;;;;;;;;;;35.96;26.73;99050.50;5107242;28;19995;-39
2021/07/16 10:30:17;;;;;;;;;;;;;;;36.07;26.50;99050.53;5094422;28;20026;-37
2021/07/16 10:32:43;;;;;;;;;;;;;;;35.89;26.07;99055.22;5094187;28;19969;-40
2021/07/16 10:35:21;;;;;;;;;;;;;;;35.64;26.85;99033.78;5092957;28;19915;-40
2021/07/16 10:37:47;;;;;;;;;;;;;;;35.97;25.88;99029.97;5094916;28;19913;-41
2021/07/16 10:40:31;;;;;;;;;;;;;;;36.00;25.89;99033.91;5094898;28;19916;-40
2021/07/16 10:42:56;;;;;;;;;;;;;;;35.53;26.43;99021.88;5094252;28;20047;-40
2021/07/16 10:45:31;;;;;;;;;;;;;;;35.94;25.30;99022.44;5094896;28;19954;-40
2021/07/16 10:48:17;;;;;;;;;;;;;;;36.25;25.00;99025.66;5094877;28;19912;-40
2021/07/16 10:50:43;;;;;;;;;;;;;;;36.26;25.43;99009.84;5087267;28;19995;-41
2021/07/16 10:53:11;;;;;;;;;;;;;;;36.46;24.67;99005.50;5093697;28;19940;-39
2021/07/16 10:55:39;;;;;;;;;;;;;;;36.33;24.80;98999.56;5092392;28;19955;-41
2021/07/16 10:58:20;;;;;;;;;;;;;;;36.67;24.55;99004.72;5093746;28;19918;-39
2021/07/16 11:00:48;;;;;;;;;;;;;;;36.25;24.16;98997.19;5093498;28;19919;-39
2021/07/16 11:03:14;;;;;;;;;;;;;;;36.08;24.73;98990.41;5093163;28;19911;-40
2021/07/16 11:05:39;;;;;;;;;;;;;;;36.65;24.05;98995.19;5093090;28;19934;-40
2021/07/16 11:08:07;;;;;;;;;;;;;;;36.29;23.93;98986.91;5092871;28;19981;-39
2021/07/16 11:10:50;;;;;;;;;;;;;;;36.12;23.94;99003.09;5093127;28;19990;-40
2021/07/16 11:13:30;;;;;;;;;;;;;;;35.69;24.39;98974.53;5093552;28;19912;-39
2021/07/16 11:15:56;;;;;;;;;;;;;;;35.61;24.24;98987.53;5093286;28;19912;-40
2021/07/16 11:18:27;;;;;;;;;;;;;;;35.84;23.91;98969.84;5093320;28;19935;-39
2021/07/16 11:20:53;;;;;;;;;;;;;;;36.09;23.92;98962.34;5093334;28;20050;-40
2021/07/16 11:23:20;;;;;;;;;;;;;;;36.13;23.84;98973.41;5092917;28;19952;-39
2021/07/16 11:25:45;;;;;;;;;;;;;;;35.95;24.37;98963.13;5093642;28;19969;-40
2021/07/16 11:28:10;;;;;;;;;;;;;;;36.65;22.75;98951.66;5093070;28;19962;-39
2021/07/16 11:30:36;;;;;;;;;;;;;;;36.10;23.58;98950.09;5093551;28;19924;-40
2021/07/16 11:33:05;;;;;;;;;;;;;;;36.18;23.78;98948.16;5093422;28;20014;-40
2021/07/16 11:35:31;;;;;;;;;;;;;;;36.52;22.82;98948.53;5093512;28;19919;-39
2021/07/16 11:37:56;;;;;;;;;;;;;;;36.15;23.97;98930.31;5092987;28;20311;-40
2021/07/16 11:40:22;;;;;;;;;;;;;;;36.87;22.71;98938.56;5093325;28;19923;-39
2021/07/16 11:42:51;;;;;;;;;;;;;;;36.81;22.87;98936.63;5092905;28;20399;-40
2021/07/16 11:45:32;;;;;;;;;;;;;;;37.25;22.27;98943.59;5093091;28;19918;-46
2021/07/16 11:47:58;;;;;;;;;;;;;;;37.03;21.52;98926.22;5093267;28;19995;-40
2021/07/16 11:50:23;;;;;;;;;;;;;;;36.79;22.55;98928.69;5092566;28;20406;-38
2021/07/16 11:52:52;;;;;;;;;;;;;;;37.06;21.74;98923.44;5093398;28;19912;-39
2021/07/16 11:55:28;;;;;;;;;;;;;;;37.15;22.16;98931.38;5091805;28;20437;-41
2021/07/16 11:57:54;;;;;;;;;;;;;;;36.75;22.14;98925.16;5092849;28;20001;-39
2021/07/16 12:00:20;;;;;;;;;;;;;;;37.04;21.99;98920.28;5092501;28;19912;-40
2021/07/16 12:02:45;;;;;;;;;;;;;;;36.91;21.48;98919.16;5092210;28;20060;-40
2021/07/16 12:05:15;;;;;;;;;;;;;;;36.42;22.42;98935.47;5092793;28;19913;-40
2021/07/16 12:07:40;;;;;;;;;;;;;;;35.77;23.61;98904.97;5091995;28;19924;-39
2021/07/16 12:10:09;;;;;;;;;;;;;;;36.25;23.07;98898.28;5097491;28;19973;-40
2021/07/16 12:12:36;;;;;;;;;;;;;;;36.43;22.87;98903.81;5093533;28;19916;-38
2021/07/16 12:15:04;;;;;;;;;;;;;;;37.06;22.28;98912.34;5096447;28;19920;-40
2021/07/16 12:17:33;;;;;;;;;;;;;;;37.66;21.44;98913.28;5102284;28;20256;-39
2021/07/16 12:19:59;;;;;;;;;;;;;;;37.27;21.63;98910.72;5103405;28;19916;-40
2021/07/16 12:22:25;;;;;;;;;;;;;;;37.15;22.19;98904.44;5093583;28;20285;-39
2021/07/16 12:24:51;;;;;;;;;;;;;;;36.46;22.19;98896.69;5090995;28;19912;-39
2021/07/16 12:27:16;;;;;;;;;;;;;;;36.69;22.40;98885.16;5092308;28;20367;-53
2021/07/16 12:29:42;;;;;;;;;;;;;;;36.82;22.31;98902.94;5092390;28;19916;-52
2021/07/16 12:32:07;;;;;;;;;;;;;;;36.88;22.21;98870.88;5092999;28;19980;-52
2021/07/16 12:34:32;;;;;;;;;;;;;;;37.30;22.08;98891.28;5091808;28;20298;-53
2021/07/16 12:37:11;;;;;;;;;;;;;;;37.29;21.58;98900.78;5091383;28;20283;-52
2021/07/16 12:39:36;;;;;;;;;;;;;;;37.16;21.93;98877.47;5089900;28;19924;-53
2021/07/16 12:42:11;;;;;;;;;;;;;;;37.19;22.01;98873.13;5091457;28;20424;-52
2021/07/16 12:44:36;;;;;;;;;;;;;;;37.36;21.11;98872.22;5091778;28;19994;-52
2021/07/16 12:47:01;;;;;;;;;;;;;;;37.32;21.27;98871.47;5091540;28;19997;-52